createdAt,value
2023-04-29T00:01:14.029Z,59.47
2023-04-29T00:03:41.488Z,59.21
2023-04-29T00:06:09.048Z,59.31
2023-04-29T00:08:36.262Z,59.18
2023-04-29T00:11:03.517Z,59.35
2023-04-29T00:13:30.797Z,59.56
2023-04-29T00:15:57.984Z,59.64
2023-04-29T00:18:25.599Z,59.82
2023-04-29T00:20:52.778Z,59.72
2023-04-29T00:23:19.937Z,59.81
2023-04-29T00:25:47.157Z,60.15
2023-04-29T00:28:14.497Z,60.13
2023-04-29T00:30:41.759Z,60.27
2023-04-29T00:33:09.074Z,60.21
2023-04-29T00:35:36.428Z,59.99
2023-04-29T00:38:03.732Z,59.92
2023-04-29T00:40:31.273Z,59.91
2023-04-29T00:42:58.443Z,60.01
2023-04-29T00:45:25.834Z,60.17
2023-04-29T00:47:53.426Z,60.22
2023-04-29T00:50:22.686Z,60.26
2023-04-29T00:52:50.482Z,60.33
2023-04-29T00:55:17.969Z,60.19
2023-04-29T00:57:46.213Z,60.29
2023-04-29T01:00:13.756Z,60.00
2023-04-29T01:02:41.369Z,60.04
2023-04-29T01:05:08.873Z,59.78
2023-04-29T01:08:21.892Z,59.95
2023-04-29T01:11:06.155Z,60.03
2023-04-29T01:13:46.301Z,60.06
2023-04-29T01:16:44.800Z,60.17
2023-04-29T01:19:47.130Z,60.01
2023-04-29T01:22:14.786Z,60.00
2023-04-29T01:24:41.950Z,59.84
2023-04-29T01:27:39.899Z,60.11
2023-04-29T01:30:13.298Z,60.12
2023-04-29T01:32:51.873Z,60.16
2023-04-29T01:35:50.954Z,59.80
2023-04-29T01:38:47.578Z,59.73
2023-04-29T01:41:45.880Z,59.66
2023-04-29T01:44:20.853Z,59.60
2023-04-29T01:46:52.846Z,59.50
2023-04-29T01:49:27.080Z,59.69
2023-04-29T01:51:55.305Z,59.50
2023-04-29T01:54:22.977Z,59.68
2023-04-29T01:56:50.136Z,59.95
2023-04-29T01:59:17.328Z,59.64
2023-04-29T02:01:44.502Z,59.49
2023-04-29T02:04:12.029Z,59.52
2023-04-29T02:06:39.596Z,59.55
2023-04-29T02:09:06.820Z,59.64
2023-04-29T02:11:33.997Z,60.18
2023-04-29T02:14:01.187Z,60.40
2023-04-29T02:16:28.529Z,60.37
2023-04-29T02:18:55.771Z,60.49
2023-04-29T02:21:23.114Z,60.47
2023-04-29T02:23:50.642Z,60.50
2023-04-29T02:26:17.927Z,60.47
2023-04-29T02:28:45.101Z,60.46
2023-04-29T02:31:12.620Z,60.54
2023-04-29T02:33:39.781Z,60.36
2023-04-29T02:36:07.184Z,60.38
2023-04-29T02:38:34.393Z,60.45
2023-04-29T02:41:01.671Z,60.34
2023-04-29T02:43:28.847Z,60.61
2023-04-29T02:45:56.060Z,60.45
2023-04-29T02:48:23.611Z,60.68
2023-04-29T02:50:51.184Z,60.34
2023-04-29T02:53:18.645Z,60.29
2023-04-29T02:55:46.079Z,60.38
2023-04-29T02:58:13.340Z,60.11
2023-04-29T03:00:43.515Z,60.16
2023-04-29T03:03:11.091Z,60.14
2023-04-29T03:05:38.633Z,60.03
2023-04-29T03:08:05.911Z,59.86
2023-04-29T03:10:33.176Z,60.01
2023-04-29T03:13:00.390Z,60.27
2023-04-29T03:15:27.599Z,60.04
2023-04-29T03:17:54.825Z,60.30
2023-04-29T03:20:22.452Z,60.33
2023-04-29T03:22:50.036Z,60.52
2023-04-29T03:25:17.261Z,60.49
2023-04-29T03:27:44.461Z,60.52
2023-04-29T03:30:12.026Z,60.61
2023-04-29T03:32:39.334Z,60.60
2023-04-29T03:35:08.396Z,60.63
2023-04-29T03:37:35.876Z,60.75
2023-04-29T03:40:03.486Z,60.58
2023-04-29T03:42:31.021Z,60.51
2023-04-29T03:44:58.244Z,60.54
2023-04-29T03:47:25.451Z,60.58
2023-04-29T03:49:52.731Z,60.50
2023-04-29T03:52:20.165Z,60.60
2023-04-29T03:54:47.368Z,60.70
2023-04-29T03:57:14.887Z,60.58
2023-04-29T03:59:42.062Z,60.69
2023-04-29T04:02:09.303Z,60.76
2023-04-29T04:04:37.061Z,60.70
2023-04-29T04:07:04.395Z,60.75
2023-04-29T04:09:31.586Z,60.20
2023-04-29T04:11:58.793Z,60.74
2023-04-29T04:14:26.128Z,60.63
2023-04-29T04:16:53.706Z,60.87
2023-04-29T04:19:20.993Z,60.92
2023-04-29T04:21:48.249Z,60.79
2023-04-29T04:24:15.352Z,60.77
2023-04-29T04:26:42.678Z,60.82
2023-04-29T04:29:10.119Z,60.84
2023-04-29T04:31:37.760Z,60.81
2023-04-29T04:34:04.986Z,61.00
2023-04-29T04:36:32.288Z,60.91
2023-04-29T04:38:59.537Z,60.75
2023-04-29T04:41:26.787Z,60.88
2023-04-29T04:43:54.072Z,61.06
2023-04-29T04:46:21.312Z,60.91
2023-04-29T04:48:48.591Z,60.98
2023-04-29T04:51:16.038Z,61.02
2023-04-29T04:53:43.214Z,61.18
2023-04-29T04:56:10.422Z,61.08
2023-04-29T04:58:37.764Z,60.94
2023-04-29T05:01:05.138Z,60.86
2023-04-29T05:03:32.562Z,60.65
2023-04-29T05:06:01.339Z,60.51
2023-04-29T05:08:28.670Z,60.53
2023-04-29T05:10:55.919Z,60.43
2023-04-29T05:13:23.138Z,60.50
2023-04-29T05:15:50.473Z,60.48
2023-04-29T05:18:17.748Z,60.63
2023-04-29T05:20:44.935Z,60.60
2023-04-29T05:23:12.270Z,60.47
2023-04-29T05:25:39.441Z,60.59
2023-04-29T05:28:08.085Z,60.53
2023-04-29T05:30:35.663Z,60.38
2023-04-29T05:33:04.253Z,60.51
2023-04-29T05:35:31.451Z,60.71
2023-04-29T05:37:59.283Z,60.68
2023-04-29T05:40:26.766Z,60.57
2023-04-29T05:42:54.072Z,60.51
2023-04-29T05:45:21.451Z,60.44
2023-04-29T05:47:48.696Z,60.69
2023-04-29T05:50:16.039Z,61.11
2023-04-29T05:52:43.624Z,60.65
2023-04-29T05:55:11.165Z,60.96
2023-04-29T05:57:44.347Z,61.04
2023-04-29T06:00:14.261Z,61.01
2023-04-29T06:02:54.849Z,61.35
2023-04-29T06:05:30.069Z,61.17
2023-04-29T06:08:00.147Z,61.12
2023-04-29T06:10:27.310Z,61.05
2023-04-29T06:12:55.924Z,61.05
2023-04-29T06:15:23.314Z,60.92
2023-04-29T06:17:52.063Z,61.08
2023-04-29T06:20:19.429Z,60.98
2023-04-29T06:22:46.625Z,60.95
2023-04-29T06:25:13.992Z,60.85
2023-04-29T06:27:41.177Z,60.49
2023-04-29T06:30:09.768Z,60.75
2023-04-29T06:32:38.467Z,60.68
2023-04-29T06:35:06.357Z,60.77
2023-04-29T06:37:34.825Z,60.26
2023-04-29T06:40:04.025Z,60.47
2023-04-29T06:42:32.799Z,60.47
2023-04-29T06:45:00.052Z,60.58
2023-04-29T06:47:27.586Z,60.49
2023-04-29T06:49:55.185Z,60.21
2023-04-29T06:52:22.951Z,59.95
2023-04-29T06:54:59.024Z,60.08
2023-04-29T06:57:26.662Z,59.85
2023-04-29T06:59:54.424Z,59.77
2023-04-29T07:02:26.116Z,59.62
2023-04-29T07:04:53.826Z,59.42
2023-04-29T07:07:21.219Z,58.99
2023-04-29T07:09:48.463Z,59.11
2023-04-29T07:12:15.592Z,58.68
2023-04-29T07:14:42.874Z,59.02
2023-04-29T07:17:11.356Z,58.91
2023-04-29T07:19:40.526Z,58.40
2023-04-29T07:22:07.761Z,57.69
2023-04-29T07:24:34.969Z,57.38
2023-04-29T07:27:02.293Z,57.51
2023-04-29T07:29:29.518Z,57.44
2023-04-29T07:31:56.698Z,57.68
2023-04-29T07:34:23.855Z,57.36
2023-04-29T07:36:51.139Z,56.87
2023-04-29T07:39:18.309Z,56.95
2023-04-29T07:41:45.537Z,57.05
2023-04-29T07:44:12.695Z,56.96
2023-04-29T07:46:39.997Z,57.05
2023-04-29T07:49:07.304Z,56.91
2023-04-29T07:51:34.785Z,56.95
2023-04-29T07:54:02.242Z,56.44
2023-04-29T07:56:29.652Z,56.01
2023-04-29T07:58:56.889Z,55.66
2023-04-29T08:01:24.069Z,55.52
2023-04-29T08:03:51.468Z,55.29
2023-04-29T08:06:19.051Z,55.23
2023-04-29T08:08:46.668Z,55.75
2023-04-29T08:11:18.643Z,55.49
2023-04-29T08:13:46.783Z,54.45
2023-04-29T08:16:14.413Z,54.44
2023-04-29T08:18:41.989Z,54.26
2023-04-29T08:21:09.296Z,53.87
2023-04-29T08:23:36.489Z,53.45
2023-04-29T08:26:03.940Z,53.69
2023-04-29T08:28:31.186Z,53.46
2023-04-29T08:30:58.397Z,53.34
2023-04-29T08:33:25.525Z,53.13
2023-04-29T08:35:59.398Z,53.44
2023-04-29T08:38:31.588Z,51.87
2023-04-29T08:41:00.673Z,51.89
2023-04-29T08:43:30.549Z,51.61
2023-04-29T08:46:00.338Z,51.86
2023-04-29T08:48:29.729Z,51.62
2023-04-29T08:50:57.435Z,51.26
2023-04-29T08:53:25.121Z,51.40
2023-04-29T08:55:54.943Z,51.82
2023-04-29T08:58:25.439Z,51.40
2023-04-29T09:00:53.417Z,50.25
2023-04-29T09:04:08.979Z,50.25
2023-04-29T09:06:36.510Z,50.11
2023-04-29T09:09:05.095Z,50.10
2023-04-29T09:11:34.404Z,49.66
2023-04-29T09:14:03.200Z,49.64
2023-04-29T09:16:30.756Z,49.17
2023-04-29T09:18:58.448Z,49.10
2023-04-29T09:21:30.373Z,48.43
2023-04-29T09:24:03.235Z,48.35
2023-04-29T09:26:43.867Z,48.12
2023-04-29T09:29:14.291Z,47.57
2023-04-29T09:31:42.557Z,47.11
2023-04-29T09:34:11.393Z,48.09
2023-04-29T09:36:51.223Z,47.24
2023-04-29T09:39:23.988Z,47.53
2023-04-29T09:41:53.926Z,46.68
2023-04-29T09:44:26.918Z,45.31
2023-04-29T09:47:03.860Z,44.70
2023-04-29T09:49:34.749Z,44.23
2023-04-29T09:52:05.833Z,44.90
2023-04-29T09:54:35.482Z,42.48
2023-04-29T09:57:04.720Z,42.52
2023-04-29T09:59:36.802Z,43.56
2023-04-29T10:02:19.770Z,43.13
2023-04-29T10:04:54.686Z,41.95
2023-04-29T10:07:22.976Z,42.11
2023-04-29T10:09:50.849Z,42.03
2023-04-29T10:12:20.752Z,41.86
2023-04-29T10:15:08.502Z,42.22
2023-04-29T10:18:11.317Z,40.62
2023-04-29T10:20:43.361Z,40.44
2023-04-29T10:23:13.197Z,38.53
2023-04-29T10:25:42.115Z,39.46
2023-04-29T10:28:15.904Z,39.56
2023-04-29T10:30:45.679Z,37.64
2023-04-29T10:33:16.700Z,38.16
2023-04-29T10:35:49.228Z,36.32
2023-04-29T10:38:36.202Z,36.29
2023-04-29T10:41:10.498Z,35.56
2023-04-29T10:43:37.934Z,35.54
2023-04-29T10:46:17.754Z,34.41
2023-04-29T10:48:51.447Z,34.43
2023-04-29T10:51:45.255Z,33.79
2023-04-29T10:54:17.543Z,33.56
2023-04-29T10:56:48.884Z,32.53
2023-04-29T10:59:37.088Z,33.01
2023-04-29T11:02:04.602Z,32.29
2023-04-29T11:04:32.153Z,31.40
2023-04-29T11:07:00.653Z,31.03
2023-04-29T11:09:35.503Z,30.99
2023-04-29T11:12:08.786Z,30.87
2023-04-29T11:14:41.546Z,31.58
2023-04-29T11:17:16.004Z,30.81
2023-04-29T11:19:52.035Z,30.25
2023-04-29T11:22:19.488Z,29.79
2023-04-29T11:25:00.938Z,29.87
2023-04-29T11:27:33.318Z,29.12
2023-04-29T11:30:06.877Z,29.33
2023-04-29T11:32:37.227Z,28.93
2023-04-29T11:35:22.485Z,27.73
2023-04-29T11:37:49.723Z,27.91
2023-04-29T11:40:17.127Z,27.56
2023-04-29T11:42:47.825Z,26.45
2023-04-29T11:45:17.543Z,26.28
2023-04-29T11:47:47.297Z,24.69
2023-04-29T11:50:17.219Z,25.06
2023-04-29T11:52:47.051Z,25.74
2023-04-29T11:55:14.519Z,25.16
2023-04-29T11:57:42.028Z,25.12
2023-04-29T12:00:14.124Z,25.18
2023-04-29T12:02:46.553Z,25.57
2023-04-29T12:05:14.932Z,25.57
2023-04-29T12:07:43.746Z,25.34
2023-04-29T12:10:12.216Z,24.50
2023-04-29T12:12:44.118Z,24.78
2023-04-29T12:15:12.968Z,24.34
2023-04-29T12:17:41.472Z,24.95
2023-04-29T12:20:10.867Z,23.70
2023-04-29T12:22:38.877Z,25.05
2023-04-29T12:25:07.526Z,24.99
2023-04-29T12:27:36.545Z,24.54
2023-04-29T12:30:10.888Z,24.37
2023-04-29T12:32:38.876Z,24.75
2023-04-29T12:35:06.447Z,23.44
2023-04-29T12:37:34.251Z,23.71
2023-04-29T12:40:01.584Z,24.40
2023-04-29T12:42:34.846Z,23.89
2023-04-29T12:45:02.110Z,23.67
2023-04-29T12:47:33.872Z,23.48
2023-04-29T12:50:01.533Z,23.48
2023-04-29T12:52:28.886Z,23.98
2023-04-29T12:54:57.733Z,24.41
2023-04-29T12:57:25.073Z,24.50
2023-04-29T12:59:52.406Z,23.65
2023-04-29T13:02:19.935Z,24.19
2023-04-29T13:04:47.390Z,24.14
2023-04-29T13:07:15.018Z,22.76
2023-04-29T13:09:42.280Z,23.19
2023-04-29T13:12:09.754Z,23.21
2023-04-29T13:14:37.286Z,23.06
2023-04-29T13:17:04.788Z,23.31
2023-04-29T13:19:48.150Z,23.16
2023-04-29T13:22:18.599Z,23.47
2023-04-29T13:24:46.049Z,22.83
2023-04-29T13:27:13.371Z,23.12
2023-04-29T13:29:40.612Z,23.02
2023-04-29T13:32:08.257Z,21.86
2023-04-29T13:34:35.851Z,22.49
2023-04-29T13:37:03.421Z,22.75
2023-04-29T13:39:31.747Z,22.19
2023-04-29T13:41:59.823Z,22.52
2023-04-29T13:44:35.848Z,22.55
2023-04-29T13:47:14.067Z,22.77
2023-04-29T13:50:16.913Z,23.32
2023-04-29T13:53:10.488Z,23.03
2023-04-29T13:56:01.703Z,22.87
2023-04-29T14:03:04.366Z,21.87
2023-04-29T14:05:31.926Z,20.96
2023-04-29T14:07:59.777Z,22.88
2023-04-29T14:10:26.986Z,23.31
2023-04-29T14:12:54.138Z,23.12
2023-04-29T14:15:21.433Z,22.79
2023-04-29T14:17:48.737Z,22.42
2023-04-29T14:20:16.069Z,22.82
2023-04-29T14:22:43.688Z,22.76
2023-04-29T14:25:12.156Z,22.07
2023-04-29T14:27:39.357Z,22.37
2023-04-29T14:30:07.735Z,21.61
2023-04-29T14:32:35.071Z,21.28
2023-04-29T14:35:02.353Z,20.42
2023-04-29T14:37:29.712Z,20.67
2023-04-29T14:39:56.988Z,20.71
2023-04-29T14:42:24.644Z,20.89
2023-04-29T14:44:51.960Z,20.70
2023-04-29T14:47:19.234Z,21.04
2023-04-29T14:49:46.481Z,19.90
2023-04-29T14:52:13.773Z,20.44
2023-04-29T14:54:41.064Z,21.09
2023-04-29T14:57:08.323Z,21.43
2023-04-29T14:59:35.711Z,21.42
2023-04-29T15:02:02.951Z,20.10
2023-04-29T15:04:30.171Z,20.51
2023-04-29T15:06:58.170Z,20.26
2023-04-29T15:09:25.798Z,20.24
2023-04-29T15:11:54.535Z,19.95
2023-04-29T15:14:22.021Z,19.98
2023-04-29T15:16:49.262Z,19.24
2023-04-29T15:19:16.640Z,20.24
2023-04-29T15:21:49.116Z,19.54
2023-04-29T15:24:17.489Z,19.21
2023-04-29T15:26:45.359Z,19.93
2023-04-29T15:29:12.840Z,19.09
2023-04-29T15:31:40.046Z,18.69
2023-04-29T15:34:07.259Z,18.92
2023-04-29T15:36:34.489Z,17.92
2023-04-29T15:39:01.747Z,18.85
2023-04-29T15:41:28.887Z,18.25
2023-04-29T15:43:57.483Z,18.51
2023-04-29T15:46:24.823Z,19.02
2023-04-29T15:48:52.059Z,18.79
2023-04-29T15:51:19.361Z,19.58
2023-04-29T15:53:46.578Z,19.19
2023-04-29T15:56:13.826Z,19.01
2023-04-29T15:58:41.098Z,19.94
2023-04-29T16:01:08.544Z,19.02
2023-04-29T16:03:35.750Z,19.20
2023-04-29T16:06:03.379Z,19.51
2023-04-29T16:08:30.928Z,20.11
2023-04-29T16:10:58.265Z,20.43
2023-04-29T16:13:25.757Z,20.13
2023-04-29T16:15:53.240Z,20.27
2023-04-29T16:18:23.647Z,20.60
2023-04-29T16:20:50.959Z,20.76
2023-04-29T16:23:18.380Z,21.33
2023-04-29T16:25:45.714Z,21.53
2023-04-29T16:28:12.922Z,21.72
2023-04-29T16:30:40.454Z,21.90
2023-04-29T16:33:07.977Z,22.13
2023-04-29T16:35:36.546Z,22.10
2023-04-29T16:38:04.747Z,22.78
2023-04-29T16:40:32.056Z,23.00
2023-04-29T16:42:59.657Z,23.61
2023-04-29T16:45:27.268Z,23.63
2023-04-29T16:47:54.711Z,24.04
2023-04-29T16:50:22.309Z,24.44
2023-04-29T16:52:49.579Z,25.00
2023-04-29T16:55:16.918Z,27.85
2023-04-29T16:57:44.144Z,26.44
2023-04-29T17:00:11.967Z,28.96
2023-04-29T17:02:39.602Z,30.45
2023-04-29T17:05:08.307Z,30.18
2023-04-29T17:07:35.730Z,30.40
2023-04-29T17:10:03.039Z,31.09
2023-04-29T17:12:30.482Z,31.12
2023-04-29T17:14:57.651Z,31.66
2023-04-29T17:17:25.157Z,32.79
2023-04-29T17:19:52.696Z,33.67
2023-04-29T17:22:20.128Z,34.15
2023-04-29T17:24:47.375Z,34.47
2023-04-29T17:27:14.753Z,34.82
2023-04-29T17:29:42.168Z,34.94
2023-04-29T17:32:09.696Z,35.48
2023-04-29T17:34:37.630Z,35.38
2023-04-29T17:37:06.252Z,35.38
2023-04-29T17:39:34.562Z,35.96
2023-04-29T17:42:01.832Z,36.46
2023-04-29T17:44:29.357Z,36.08
2023-04-29T17:46:56.587Z,36.84
2023-04-29T17:49:23.861Z,36.58
2023-04-29T17:51:51.165Z,36.82
2023-04-29T17:54:18.487Z,37.55
2023-04-29T17:56:45.840Z,37.21
2023-04-29T17:59:13.123Z,36.96
2023-04-29T18:01:40.456Z,37.67
2023-04-29T18:04:07.985Z,37.62
2023-04-29T18:06:35.321Z,37.66
2023-04-29T18:09:02.750Z,37.91
2023-04-29T18:11:30.326Z,38.16
2023-04-29T18:13:57.526Z,38.54
2023-04-29T18:16:25.108Z,38.00
2023-04-29T18:18:53.406Z,37.99
2023-04-29T18:21:27.645Z,38.30
2023-04-29T18:23:57.171Z,38.67
2023-04-29T18:26:25.059Z,39.37
2023-04-29T18:28:52.431Z,39.46
2023-04-29T18:31:19.834Z,39.59
2023-04-29T18:33:47.103Z,39.94
2023-04-29T18:36:14.452Z,40.12
2023-04-29T18:38:41.909Z,40.22
2023-04-29T18:41:09.128Z,40.12
2023-04-29T18:43:36.507Z,39.87
2023-04-29T18:46:03.841Z,39.74
2023-04-29T18:48:31.185Z,40.32
2023-04-29T18:50:59.857Z,40.37
2023-04-29T18:53:27.470Z,40.40
2023-04-29T18:55:54.705Z,40.43
2023-04-29T18:58:22.060Z,40.56
2023-04-29T19:00:49.471Z,41.16
2023-04-29T19:03:16.844Z,41.29
2023-04-29T19:05:44.873Z,40.96
2023-04-29T19:08:12.094Z,41.09
2023-04-29T19:10:39.504Z,40.99
2023-04-29T19:13:06.830Z,41.11
2023-04-29T19:15:34.547Z,40.82
2023-04-29T19:18:01.854Z,41.18
2023-04-29T19:20:29.837Z,41.30
2023-04-29T19:22:57.001Z,41.59
2023-04-29T19:25:24.535Z,41.72
2023-04-29T19:27:52.548Z,42.21
2023-04-29T19:30:19.957Z,42.28
2023-04-29T19:32:48.872Z,42.60
2023-04-29T19:35:16.184Z,42.82
2023-04-29T19:37:43.445Z,43.08
2023-04-29T19:40:11.481Z,43.01
2023-04-29T19:42:40.837Z,43.13
2023-04-29T19:45:09.365Z,43.38
2023-04-29T19:47:36.720Z,43.15
2023-04-29T19:50:05.227Z,43.14
2023-04-29T19:52:32.643Z,43.34
2023-04-29T19:54:59.849Z,43.68
2023-04-29T19:57:27.128Z,44.02
2023-04-29T19:59:55.011Z,44.18
2023-04-29T20:02:22.793Z,44.35
2023-04-29T20:04:50.136Z,44.56
2023-04-29T20:07:17.595Z,44.29
2023-04-29T20:09:44.834Z,44.39
2023-04-29T20:12:12.440Z,44.62
2023-04-29T20:14:40.024Z,44.87
2023-04-29T20:17:07.433Z,45.03
2023-04-29T20:19:34.903Z,45.13
2023-04-29T20:22:02.164Z,45.41
2023-04-29T20:24:29.508Z,45.22
2023-04-29T20:26:56.813Z,45.52
2023-04-29T20:29:24.075Z,45.44
2023-04-29T20:31:51.469Z,45.29
2023-04-29T20:34:18.916Z,45.51
2023-04-29T20:36:46.078Z,45.80
2023-04-29T20:39:13.313Z,45.99
2023-04-29T20:41:40.686Z,46.10
2023-04-29T20:44:07.945Z,46.12
2023-04-29T20:46:35.218Z,46.15
2023-04-29T20:49:02.859Z,46.21
2023-04-29T20:51:30.326Z,46.11
2023-04-29T20:53:57.700Z,46.41
2023-04-29T20:56:25.064Z,46.58
2023-04-29T20:58:52.468Z,46.23
2023-04-29T21:01:19.777Z,46.25
2023-04-29T21:03:46.993Z,46.11
2023-04-29T21:06:14.416Z,45.89
2023-04-29T21:08:42.162Z,45.89
2023-04-29T21:11:09.331Z,46.13
2023-04-29T21:13:37.425Z,46.16
2023-04-29T21:16:05.305Z,46.23
2023-04-29T21:18:32.661Z,46.20
2023-04-29T21:20:59.882Z,45.94
2023-04-29T21:23:27.258Z,46.07
2023-04-29T21:25:54.392Z,46.41
2023-04-29T21:28:21.556Z,46.39
2023-04-29T21:30:48.774Z,46.34
2023-04-29T21:33:16.199Z,46.42
2023-04-29T21:35:43.538Z,46.53
2023-04-29T21:38:10.777Z,46.58
2023-04-29T21:40:42.225Z,46.66
2023-04-29T21:43:11.137Z,46.59
2023-04-29T21:45:38.927Z,46.70
2023-04-29T21:48:18.015Z,46.88
2023-04-29T21:50:46.061Z,47.05
2023-04-29T21:53:16.497Z,47.16
2023-04-29T21:55:44.120Z,47.29
2023-04-29T21:58:11.291Z,47.12
2023-04-29T22:00:38.599Z,47.28
2023-04-29T22:03:08.787Z,47.20
2023-04-29T22:05:37.423Z,47.29
2023-04-29T22:08:06.906Z,47.64
2023-04-29T22:10:34.081Z,47.41
2023-04-29T22:13:01.331Z,47.57
2023-04-29T22:15:29.621Z,47.94
2023-04-29T22:17:57.978Z,47.60
2023-04-29T22:20:26.111Z,47.59
2023-04-29T22:22:54.278Z,47.57
2023-04-29T22:25:22.116Z,47.38
2023-04-29T22:27:50.352Z,47.41
2023-04-29T22:30:18.098Z,47.31
2023-04-29T22:32:45.821Z,47.28
2023-04-29T22:35:13.546Z,47.44
2023-04-29T22:37:41.177Z,47.71
2023-04-29T22:40:09.375Z,47.77
2023-04-29T22:42:36.920Z,47.54
2023-04-29T22:45:04.748Z,47.69
2023-04-29T22:47:32.622Z,47.69
2023-04-29T22:50:00.254Z,47.78
2023-04-29T22:52:27.818Z,47.84
2023-04-29T22:54:55.420Z,47.94
2023-04-29T22:57:22.920Z,48.08
2023-04-29T22:59:54.823Z,48.01
2023-04-29T23:02:23.512Z,48.15
2023-04-29T23:04:51.306Z,48.28
2023-04-29T23:07:18.906Z,48.10
2023-04-29T23:09:46.476Z,48.23
2023-04-29T23:12:14.053Z,48.35
2023-04-29T23:14:41.645Z,48.24
2023-04-29T23:17:09.356Z,48.49
2023-04-29T23:19:36.994Z,48.61
2023-04-29T23:22:04.835Z,48.71
2023-04-29T23:24:32.424Z,48.52
2023-04-29T23:26:59.936Z,48.56
2023-04-29T23:29:27.490Z,48.74
2023-04-29T23:31:54.974Z,48.54
2023-04-29T23:34:22.574Z,48.59
2023-04-29T23:36:50.098Z,48.68
2023-04-29T23:39:17.601Z,48.45
2023-04-29T23:41:45.117Z,48.66
2023-04-29T23:44:12.718Z,48.47
2023-04-29T23:46:40.478Z,48.54
2023-04-29T23:49:08.163Z,48.94
2023-04-29T23:51:35.788Z,48.90
2023-04-29T23:54:03.548Z,49.03
2023-04-29T23:56:31.271Z,48.88
2023-04-29T23:58:58.818Z,48.90
